createdAt,value
2022-12-23T00:00:30.378Z,116.85
2022-12-23T00:06:40.069Z,113.43
2022-12-23T00:09:44.635Z,120.00
2022-12-23T00:13:07.489Z,115.72
2022-12-23T00:16:14.648Z,124.30
2022-12-23T00:19:19.377Z,123.78
2022-12-23T00:22:43.867Z,122.78
2022-12-23T00:31:59.635Z,123.72
2022-12-23T00:35:04.598Z,141.10
2022-12-23T00:38:09.057Z,129.27
2022-12-23T00:41:37.841Z,121.43
2022-12-23T00:44:41.833Z,122.25
2022-12-23T00:48:17.113Z,129.07
2022-12-23T00:51:21.424Z,134.20
2022-12-23T00:54:26.271Z,129.95
2022-12-23T00:57:30.714Z,137.13
2022-12-23T01:00:53.424Z,136.73
2022-12-23T01:04:16.146Z,136.82
2022-12-23T01:07:21.443Z,134.13
2022-12-23T01:10:25.975Z,141.35
2022-12-23T01:13:30.488Z,124.20
2022-12-23T01:16:38.622Z,143.90
2022-12-23T01:19:43.327Z,151.18
2022-12-23T01:22:47.835Z,134.80
2022-12-23T01:26:05.038Z,148.20
2022-12-23T01:29:09.497Z,138.10
2022-12-23T01:32:13.879Z,142.23
2022-12-23T01:35:18.697Z,147.55
2022-12-23T01:38:22.834Z,150.75
2022-12-23T01:41:51.294Z,141.38
2022-12-23T01:45:04.422Z,142.63
2022-12-23T01:48:23.504Z,151.48
2022-12-23T01:51:30.102Z,154.05
2022-12-23T01:54:35.526Z,160.73
2022-12-23T01:57:42.800Z,154.73
2022-12-23T02:01:05.641Z,158.50
2022-12-23T02:04:15.978Z,149.65
2022-12-23T02:07:40.247Z,170.63
2022-12-23T02:11:29.647Z,166.07
2022-12-23T02:15:36.095Z,165.18
2022-12-23T02:19:17.755Z,152.50
2022-12-23T02:23:19.032Z,156.40
2022-12-23T02:26:26.662Z,165.88
2022-12-23T02:30:27.627Z,176.68
2022-12-23T02:34:16.870Z,174.90
2022-12-23T02:37:38.061Z,163.75
2022-12-23T02:41:10.668Z,181.82
2022-12-23T02:44:36.216Z,191.20
2022-12-23T02:47:49.237Z,199.98
2022-12-23T02:50:57.054Z,184.13
2022-12-23T02:54:08.129Z,193.82
2022-12-23T02:57:17.979Z,177.32
2022-12-23T03:00:23.005Z,190.35
2022-12-23T03:03:28.407Z,179.00
2022-12-23T03:06:43.358Z,198.95
2022-12-23T03:10:14.534Z,200.55
2022-12-23T03:13:52.536Z,208.48
2022-12-23T03:18:07.126Z,201.32
2022-12-23T03:21:30.360Z,212.00
2022-12-23T03:24:37.712Z,204.25
2022-12-23T03:28:11.134Z,208.65
2022-12-23T03:31:29.062Z,224.88
2022-12-23T03:34:40.954Z,214.55
2022-12-23T03:37:50.642Z,224.48
2022-12-23T03:41:01.825Z,227.48
2022-12-23T03:44:20.302Z,231.90
2022-12-23T03:47:44.672Z,227.23
2022-12-23T03:50:56.577Z,247.15
2022-12-23T03:54:17.288Z,235.48
2022-12-23T03:57:34.588Z,245.68
2022-12-23T04:00:49.720Z,227.38
2022-12-23T04:04:44.788Z,233.52
2022-12-23T04:08:12.062Z,238.38
2022-12-23T04:11:16.956Z,256.48
2022-12-23T04:14:22.960Z,239.23
2022-12-23T04:17:27.731Z,246.48
2022-12-23T04:20:32.025Z,251.60
2022-12-23T04:23:36.302Z,275.00
2022-12-23T04:26:40.628Z,250.13
2022-12-23T04:29:44.998Z,251.88
2022-12-23T04:32:49.283Z,260.10
2022-12-23T04:35:53.674Z,279.95
2022-12-23T04:38:57.797Z,286.75
2022-12-23T04:42:02.402Z,275.63
2022-12-23T04:45:07.411Z,313.88
2022-12-23T04:48:11.921Z,303.65
2022-12-23T04:51:16.102Z,288.55
2022-12-23T04:54:20.324Z,279.65
2022-12-23T04:57:24.675Z,285.05
2022-12-23T05:00:34.025Z,370.88
2022-12-23T05:03:42.076Z,291.70
2022-12-23T05:06:46.586Z,266.92
2022-12-23T05:09:51.917Z,351.17
2022-12-23T05:12:55.997Z,323.98
2022-12-23T05:16:00.267Z,344.00
2022-12-23T05:19:05.143Z,345.33
2022-12-23T05:22:09.534Z,355.77
2022-12-23T05:25:14.117Z,377.00
2022-12-23T05:28:19.297Z,374.67
2022-12-23T05:31:23.677Z,308.10
2022-12-23T05:34:28.316Z,285.08
2022-12-23T05:37:32.874Z,297.98
2022-12-23T05:40:37.889Z,294.42
2022-12-23T05:43:43.282Z,308.65
2022-12-23T05:46:47.724Z,291.70
2022-12-23T05:49:52.167Z,324.92
2022-12-23T05:52:57.695Z,363.95
2022-12-23T05:56:06.971Z,335.90
2022-12-23T05:59:11.513Z,285.90
2022-12-23T06:02:16.095Z,251.25
2022-12-23T06:05:20.724Z,232.13
2022-12-23T06:08:25.291Z,219.40
2022-12-23T06:11:29.895Z,224.43
2022-12-23T06:14:34.388Z,200.88
2022-12-23T06:17:38.749Z,197.73
2022-12-23T06:20:47.547Z,215.60
2022-12-23T06:23:52.774Z,186.57
2022-12-23T06:26:57.675Z,191.23
2022-12-23T06:30:02.207Z,197.13
2022-12-23T06:33:06.485Z,184.38
2022-12-23T06:36:13.609Z,199.57
2022-12-23T06:39:18.068Z,162.57
2022-12-23T06:42:22.309Z,186.45
2022-12-23T06:45:26.858Z,210.55
2022-12-23T06:48:31.372Z,217.77
2022-12-23T06:51:35.889Z,181.18
2022-12-23T06:54:40.472Z,239.32
2022-12-23T06:57:45.254Z,192.07
2022-12-23T07:00:49.680Z,174.65
2022-12-23T07:03:54.293Z,174.25
2022-12-23T07:06:58.847Z,199.45
2022-12-23T07:10:03.569Z,167.88
2022-12-23T07:13:08.112Z,177.75
2022-12-23T07:16:13.005Z,212.38
2022-12-23T07:19:17.803Z,176.05
2022-12-23T07:22:22.142Z,210.30
2022-12-23T07:25:26.379Z,175.07
2022-12-23T07:28:30.563Z,175.93
2022-12-23T07:31:39.269Z,224.00
2022-12-23T07:34:45.335Z,179.18
2022-12-23T07:37:55.565Z,205.10
2022-12-23T07:40:59.800Z,147.68
2022-12-23T07:44:04.412Z,203.80
2022-12-23T07:47:08.810Z,181.52
2022-12-23T07:50:13.614Z,202.40
2022-12-23T07:53:17.902Z,165.05
2022-12-23T07:56:22.227Z,149.25
2022-12-23T07:59:27.402Z,150.68
2022-12-23T08:02:31.937Z,156.05
2022-12-23T08:05:36.337Z,159.00
2022-12-23T08:11:46.545Z,181.40
2022-12-23T08:14:52.653Z,171.25
2022-12-23T08:17:57.404Z,203.57
2022-12-23T08:21:08.852Z,210.50
2022-12-23T08:24:13.644Z,138.48
2022-12-23T08:27:18.637Z,145.32
2022-12-23T08:30:23.353Z,143.30
2022-12-23T08:33:27.578Z,125.60
2022-12-23T08:36:34.647Z,131.77
2022-12-23T08:39:39.326Z,148.43
2022-12-23T08:42:44.513Z,137.57
2022-12-23T08:45:48.705Z,123.85
2022-12-23T08:48:53.627Z,117.30
2022-12-23T08:51:58.279Z,120.28
2022-12-23T08:55:02.302Z,114.03
2022-12-23T08:58:08.185Z,115.57
2022-12-23T09:01:17.463Z,110.38
2022-12-23T09:04:21.800Z,99.65
2022-12-23T09:07:25.932Z,99.95
2022-12-23T09:10:30.201Z,106.88
2022-12-23T09:13:35.925Z,100.22
2022-12-23T09:16:40.913Z,98.40
2022-12-23T09:19:52.284Z,103.25
2022-12-23T09:22:59.209Z,98.72
2022-12-23T09:26:07.857Z,98.80
2022-12-23T09:29:12.452Z,106.05
2022-12-23T09:32:16.918Z,108.28
2022-12-23T09:35:21.985Z,122.95
2022-12-23T09:38:26.297Z,106.05
2022-12-23T09:42:25.314Z,110.80
2022-12-23T09:45:51.323Z,114.90
2022-12-23T09:49:09.097Z,103.28
2022-12-23T09:52:24.908Z,113.00
2022-12-23T09:55:46.456Z,101.57
2022-12-23T09:58:56.728Z,107.10
2022-12-23T10:02:21.907Z,101.78
2022-12-23T10:05:47.911Z,87.63
2022-12-23T10:08:58.741Z,111.65
2022-12-23T10:12:28.212Z,142.38
2022-12-23T10:15:44.897Z,99.80
2022-12-23T10:19:20.824Z,101.15
2022-12-23T10:22:43.037Z,111.07
2022-12-23T10:25:52.305Z,116.57
2022-12-23T10:29:18.716Z,112.05
2022-12-23T10:32:46.412Z,113.05
2022-12-23T10:36:09.645Z,96.18
2022-12-23T10:39:35.649Z,127.70
2022-12-23T10:43:20.926Z,107.18
2022-12-23T10:50:02.831Z,95.68
2022-12-23T10:53:12.448Z,75.10
2022-12-23T10:56:17.402Z,73.00
2022-12-23T10:59:36.541Z,60.58
2022-12-23T11:02:56.098Z,55.95
2022-12-23T11:06:01.631Z,53.38
2022-12-23T11:09:13.966Z,65.20
2022-12-23T11:12:25.884Z,67.32
2022-12-23T11:15:39.869Z,69.25
2022-12-23T11:19:05.672Z,62.30
2022-12-23T11:22:25.015Z,62.63
2022-12-23T11:25:43.693Z,78.53
2022-12-23T11:28:58.817Z,89.60
2022-12-23T11:32:20.893Z,87.95
2022-12-23T11:35:37.454Z,88.32
2022-12-23T11:39:14.943Z,76.25
2022-12-23T11:42:28.898Z,77.35
2022-12-23T11:45:37.783Z,87.88
2022-12-23T11:48:42.627Z,57.78
2022-12-23T11:52:04.928Z,66.55
2022-12-23T11:55:26.040Z,62.00
2022-12-23T11:58:39.844Z,77.07
2022-12-23T12:01:48.758Z,70.97
2022-12-23T12:05:06.750Z,74.95
2022-12-23T12:08:17.022Z,71.88
2022-12-23T12:11:39.101Z,75.40
2022-12-23T12:14:55.390Z,62.80
2022-12-23T12:18:01.009Z,71.93
2022-12-23T12:21:13.158Z,63.45
2022-12-23T12:24:27.295Z,61.13
2022-12-23T12:27:39.306Z,56.20
2022-12-23T12:31:03.161Z,57.20
2022-12-23T12:34:50.976Z,67.63
2022-12-23T12:38:26.095Z,55.22
2022-12-23T12:45:10.345Z,51.97
2022-12-23T12:48:25.163Z,40.15
2022-12-23T12:51:49.230Z,35.15
2022-12-23T12:55:04.445Z,38.75
2022-12-23T12:58:31.734Z,31.90
2022-12-23T13:02:22.857Z,27.52
2022-12-23T13:05:54.376Z,25.25
2022-12-23T13:09:34.501Z,26.85
2022-12-23T13:13:16.077Z,17.50
2022-12-23T13:16:35.127Z,22.20
2022-12-23T13:20:09.054Z,28.15
2022-12-23T13:23:43.985Z,18.38
2022-12-23T13:26:56.782Z,22.60
2022-12-23T13:30:20.110Z,19.70
2022-12-23T13:34:15.166Z,21.65
2022-12-23T13:38:11.600Z,15.52
2022-12-23T13:41:24.503Z,23.33
2022-12-23T13:44:32.709Z,18.90
2022-12-23T13:48:08.465Z,24.98
2022-12-23T13:51:44.956Z,19.90
2022-12-23T13:55:16.221Z,18.80
2022-12-23T13:58:23.481Z,19.88
2022-12-23T14:01:42.758Z,19.23
2022-12-23T14:04:59.194Z,20.75
2022-12-23T14:08:20.240Z,22.98
2022-12-23T14:11:29.557Z,23.98
2022-12-23T14:14:34.479Z,22.73
2022-12-23T14:18:21.994Z,26.42
2022-12-23T14:21:49.498Z,26.92
2022-12-23T14:25:24.213Z,24.05
2022-12-23T14:28:53.681Z,22.65
2022-12-23T14:31:59.937Z,30.25
2022-12-23T14:35:35.436Z,27.02
2022-12-23T14:39:13.220Z,23.30
2022-12-23T14:42:47.063Z,24.77
2022-12-23T14:45:57.153Z,28.33
2022-12-23T14:49:29.749Z,24.00
2022-12-23T14:52:58.642Z,28.25
2022-12-23T14:56:15.239Z,40.75
2022-12-23T15:00:00.236Z,34.58
2022-12-23T15:03:05.181Z,25.02
2022-12-23T15:06:24.670Z,26.40
2022-12-23T15:09:58.677Z,27.88
2022-12-23T15:13:06.275Z,27.70
2022-12-23T15:16:17.725Z,27.38
2022-12-23T15:19:27.947Z,27.00
2022-12-23T15:22:32.935Z,28.42
2022-12-23T15:25:45.869Z,33.83
2022-12-23T15:28:50.760Z,32.78
2022-12-23T15:31:58.871Z,39.45
2022-12-23T15:35:06.089Z,24.15
2022-12-23T15:38:21.233Z,42.47
2022-12-23T15:41:26.001Z,32.15
2022-12-23T15:44:39.235Z,34.40
2022-12-23T15:47:43.639Z,44.13
2022-12-23T15:50:48.691Z,34.35
2022-12-23T15:53:59.443Z,28.13
2022-12-23T15:57:05.420Z,29.27
2022-12-23T16:00:31.616Z,33.33
2022-12-23T16:03:41.586Z,32.70
2022-12-23T16:06:50.752Z,31.95
2022-12-23T16:09:55.308Z,35.08
2022-12-23T16:12:59.627Z,35.40
2022-12-23T16:16:39.202Z,31.67
2022-12-23T16:19:53.075Z,35.22
2022-12-23T16:23:02.418Z,36.47
2022-12-23T16:26:11.819Z,40.80
2022-12-23T16:29:16.559Z,32.33
2022-12-23T16:32:21.285Z,32.25
2022-12-23T16:35:38.822Z,34.83
2022-12-23T16:38:43.710Z,32.63
2022-12-23T16:41:49.966Z,27.88
2022-12-23T16:44:54.442Z,34.40
2022-12-23T16:47:59.510Z,41.65
2022-12-23T16:51:11.057Z,36.75
2022-12-23T16:54:18.920Z,43.20
2022-12-23T16:57:23.470Z,34.55
2022-12-23T17:00:29.874Z,36.20
2022-12-23T17:03:34.081Z,41.85
2022-12-23T17:06:40.695Z,45.75
2022-12-23T17:09:49.223Z,49.45
2022-12-23T17:12:53.383Z,37.88
2022-12-23T17:15:59.263Z,38.45
2022-12-23T17:19:05.546Z,36.00
2022-12-23T17:22:13.094Z,35.65
2022-12-23T17:25:26.215Z,43.35
2022-12-23T17:28:32.986Z,33.47
2022-12-23T17:31:37.250Z,35.55
2022-12-23T17:34:43.293Z,34.65
2022-12-23T17:37:47.571Z,37.92
2022-12-23T17:40:55.124Z,31.80
2022-12-23T17:44:01.958Z,38.20
2022-12-23T17:47:18.330Z,31.35
2022-12-23T17:50:24.479Z,36.95
2022-12-23T17:53:28.882Z,30.80
2022-12-23T17:56:33.347Z,31.95
2022-12-23T17:59:38.043Z,30.00
2022-12-23T18:02:43.231Z,26.50
2022-12-23T18:05:47.229Z,19.05
2022-12-23T18:08:51.856Z,16.48
2022-12-23T18:11:56.323Z,17.38
2022-12-23T18:15:01.667Z,17.40
2022-12-23T18:18:32.172Z,20.88
2022-12-23T18:21:39.927Z,14.65
2022-12-23T18:24:45.238Z,16.90
2022-12-23T18:27:51.069Z,17.85
2022-12-23T18:30:56.782Z,14.90
2022-12-23T18:34:01.750Z,12.10
2022-12-23T18:37:08.737Z,23.85
2022-12-23T18:40:13.371Z,22.33
2022-12-23T18:43:21.877Z,10.90
2022-12-23T18:46:26.340Z,17.98
2022-12-23T18:49:30.529Z,14.63
2022-12-23T18:52:34.804Z,14.90
2022-12-23T18:55:39.112Z,18.30
2022-12-23T18:58:44.214Z,14.30
2022-12-23T19:01:49.174Z,10.75
2022-12-23T19:04:53.760Z,10.85
2022-12-23T19:07:59.940Z,16.75
2022-12-23T19:11:16.379Z,12.95
2022-12-23T19:14:20.875Z,15.00
2022-12-23T19:17:25.325Z,9.43
2022-12-23T19:20:29.678Z,11.73
2022-12-23T19:23:34.073Z,12.25
2022-12-23T19:26:38.629Z,13.18
2022-12-23T19:29:43.383Z,12.38
2022-12-23T19:32:51.565Z,10.98
2022-12-23T19:35:56.280Z,9.73
2022-12-23T19:39:00.863Z,8.82
2022-12-23T19:42:05.880Z,13.27
2022-12-23T19:45:11.606Z,20.48
2022-12-23T19:48:15.979Z,16.83
2022-12-23T19:51:21.285Z,10.40
2022-12-23T19:54:25.586Z,12.30
2022-12-23T19:57:29.738Z,13.55
2022-12-23T20:00:34.169Z,15.80
2022-12-23T20:03:40.491Z,14.20
2022-12-23T20:06:45.468Z,10.90
2022-12-23T20:09:50.418Z,22.95
2022-12-23T20:12:54.705Z,10.65
2022-12-23T20:15:59.679Z,8.90
2022-12-23T20:19:05.238Z,10.40
2022-12-23T20:22:09.900Z,13.80
2022-12-23T20:25:14.283Z,11.75
2022-12-23T20:28:18.848Z,12.95
2022-12-23T20:31:29.529Z,14.70
2022-12-23T20:34:39.038Z,17.40
2022-12-23T20:37:43.766Z,25.02
2022-12-23T20:40:48.179Z,9.85
2022-12-23T20:44:31.468Z,17.73
2022-12-23T20:47:18.157Z,10.32
2022-12-23T20:50:22.190Z,12.73
2022-12-23T20:53:26.695Z,14.25
2022-12-23T20:56:31.763Z,20.75
2022-12-23T20:59:36.303Z,24.33
2022-12-23T21:02:40.937Z,10.73
2022-12-23T21:05:45.521Z,17.52
2022-12-23T21:08:52.337Z,9.73
2022-12-23T21:11:56.817Z,10.82
2022-12-23T21:15:01.140Z,11.23
2022-12-23T21:18:05.535Z,18.10
2022-12-23T21:21:10.717Z,17.67
2022-12-23T21:24:15.991Z,11.65
2022-12-23T21:27:20.422Z,14.77
2022-12-23T21:30:24.789Z,13.40
2022-12-23T21:33:29.062Z,10.15
2022-12-23T21:36:37.722Z,12.75
2022-12-23T21:39:42.260Z,10.32
2022-12-23T21:42:46.841Z,16.40
2022-12-23T21:46:00.747Z,13.45
2022-12-23T21:49:04.999Z,14.05
2022-12-23T21:52:10.390Z,12.77
2022-12-23T21:55:16.016Z,15.13
2022-12-23T21:58:20.796Z,16.98
2022-12-23T22:01:26.729Z,17.80
2022-12-23T22:04:31.057Z,14.90
2022-12-23T22:07:35.632Z,17.55
2022-12-23T22:10:40.200Z,13.00
2022-12-23T22:13:45.412Z,14.00
2022-12-23T22:16:49.826Z,12.80
2022-12-23T22:19:54.402Z,11.70
2022-12-23T22:22:58.828Z,14.43
2022-12-23T22:26:03.846Z,15.70
2022-12-23T22:29:08.412Z,17.13
2022-12-23T22:32:12.916Z,16.77
2022-12-23T22:35:17.174Z,16.00
2022-12-23T22:38:21.698Z,14.02
2022-12-23T22:41:30.675Z,19.23
2022-12-23T22:44:35.361Z,14.60
2022-12-23T22:47:39.925Z,13.98
2022-12-23T22:50:44.159Z,18.00
2022-12-23T22:53:48.969Z,15.15
2022-12-23T22:56:53.089Z,12.38
2022-12-23T22:59:57.324Z,14.07
2022-12-23T23:03:01.629Z,19.88
2022-12-23T23:06:07.851Z,14.73
2022-12-23T23:09:16.869Z,15.25
2022-12-23T23:12:21.135Z,15.27
2022-12-23T23:15:25.399Z,17.98
2022-12-23T23:18:30.538Z,20.85
2022-12-23T23:21:37.693Z,17.95
2022-12-23T23:24:42.483Z,22.20
2022-12-23T23:27:47.043Z,13.68
2022-12-23T23:31:03.802Z,26.38
2022-12-23T23:34:14.462Z,15.23
2022-12-23T23:37:18.697Z,19.80
2022-12-23T23:40:22.945Z,18.23
2022-12-23T23:43:27.559Z,27.02
2022-12-23T23:46:32.440Z,23.08
2022-12-23T23:49:36.953Z,26.90
2022-12-23T23:52:41.840Z,22.90
2022-12-23T23:55:46.101Z,17.38
2022-12-23T23:58:50.471Z,15.52
